Time;durP1;ratioP1;P1;durP2;ratioP2;P2;SDS_P1;SDS_P2;PMS_P1;PMS_P2;Temp;Humidity;BMP_temperature;BMP_pressure;BME280_temperature;BME280_humidity;BME280_pressure;Samples;Min_cycle;Max_cycle;Signal;HPM_P1;HPM_P2
2021/08/21 03:36:26;;;;;;;2.95;1.50;;;17.00;99.90;;;;;;4917744;29;20093;-96
2021/08/21 03:38:55;;;;;;;3.95;1.00;;;17.00;99.90;;;;;;4918646;29;20032;-96
2021/08/21 03:41:23;;;;;;;4.97;1.13;;;16.90;99.90;;;;;;4903912;29;20016;-96
2021/08/21 03:43:49;;;;;;;2.40;1.48;;;16.90;99.90;;;;;;4906662;29;20033;-96
2021/08/21 03:46:18;;;;;;;6.07;1.33;;;16.90;99.90;;;;;;4906826;29;20028;-96
2021/08/21 03:48:44;;;;;;;2.85;1.20;;;16.90;99.90;;;;;;4922273;29;20020;-95
2021/08/21 03:51:15;;;;;;;3.00;1.15;;;16.90;99.90;;;;;;4906026;29;20017;-96
2021/08/21 03:53:43;;;;;;;2.45;1.20;;;16.90;99.90;;;;;;4920221;29;20036;-96
2021/08/21 03:56:13;;;;;;;4.70;1.20;;;16.90;99.90;;;;;;4920901;29;20043;-96
2021/08/21 03:58:39;;;;;;;4.57;1.30;;;16.90;99.90;;;;;;4920866;29;20100;-96
2021/08/21 04:03:53;;;;;;;4.90;1.25;;;16.90;99.90;;;;;;5015298;23;20051;-95
2021/08/21 04:06:19;;;;;;;5.75;1.20;;;16.90;99.90;;;;;;4941782;29;20055;-96
2021/08/21 04:08:48;;;;;;;1.35;1.10;;;16.90;99.90;;;;;;4960210;29;20032;-96
2021/08/21 04:11:13;;;;;;;3.78;1.17;;;16.80;99.90;;;;;;4941897;29;20064;-96
2021/08/21 04:13:40;;;;;;;2.95;1.30;;;16.80;99.90;;;;;;4943339;29;20055;-96
2021/08/21 04:16:08;;;;;;;2.17;1.17;;;16.80;99.90;;;;;;4942982;29;20031;-96
2021/08/21 04:18:36;;;;;;;3.42;1.10;;;16.80;99.90;;;;;;4942339;29;20043;-96
2021/08/21 04:21:03;;;;;;;3.42;1.60;;;16.80;99.90;;;;;;4959295;29;20004;-96
2021/08/21 05:38:48;;;;;;;4.18;2.10;;;16.40;99.90;;;;;;5335112;23;20051;-96
2021/08/21 05:41:14;;;;;;;3.85;2.03;;;16.30;99.90;;;;;;4952310;29;20023;-95
2021/08/21 05:43:40;;;;;;;4.88;2.10;;;16.30;99.90;;;;;;4950953;29;20042;-95
2021/08/21 05:46:05;;;;;;;4.70;2.42;;;16.30;99.90;;;;;;4951057;29;20031;-95
2021/08/21 05:48:31;;;;;;;4.28;2.25;;;16.20;99.90;;;;;;4947595;29;20031;-96
2021/08/21 05:50:57;;;;;;;3.80;1.92;;;16.20;99.90;;;;;;4945939;29;20464;-96
2021/08/21 05:53:22;;;;;;;5.85;2.10;;;16.20;99.90;;;;;;4961656;29;20027;-95
2021/08/21 05:55:51;;;;;;;2.97;2.10;;;16.20;99.90;;;;;;4942284;29;20027;-95
2021/08/21 05:58:16;;;;;;;3.67;2.00;;;16.20;99.90;;;;;;4942103;29;20103;-96
2021/08/21 06:00:42;;;;;;;3.03;2.10;;;16.20;99.90;;;;;;4942878;29;20549;-96
2021/08/21 06:03:08;;;;;;;5.25;2.67;;;16.20;99.90;;;;;;4942040;29;20415;-96
2021/08/21 06:05:33;;;;;;;3.22;2.17;;;16.20;99.90;;;;;;4943236;29;20030;-96
2021/08/21 06:07:59;;;;;;;6.85;2.97;;;16.20;99.90;;;;;;4942516;29;20027;-95
2021/08/21 06:10:25;;;;;;;2.80;2.05;;;16.20;99.90;;;;;;4943106;29;20031;-95
2021/08/21 06:12:53;;;;;;;3.22;2.40;;;16.20;99.90;;;;;;4942499;29;20070;-96
2021/08/21 06:15:19;;;;;;;4.15;2.00;;;16.20;99.90;;;;;;4942489;29;20118;-96
2021/08/21 06:17:45;;;;;;;3.13;1.73;;;16.20;99.90;;;;;;4943349;29;20051;-94
2021/08/21 06:20:11;;;;;;;4.00;1.95;;;16.20;99.90;;;;;;4943311;29;20528;-95
2021/08/21 06:22:37;;;;;;;8.35;2.13;;;16.20;99.90;;;;;;4942678;29;20031;-95
2021/08/21 06:25:03;;;;;;;3.45;1.60;;;16.20;99.90;;;;;;4946065;29;20123;-96
2021/08/21 06:27:29;;;;;;;2.55;1.58;;;16.30;99.90;;;;;;4946588;29;20046;-96
2021/08/21 06:29:55;;;;;;;1.88;1.60;;;16.30;99.90;;;;;;4928098;29;20593;-94
2021/08/21 06:32:24;;;;;;;3.72;2.00;;;16.20;99.90;;;;;;4942022;29;20122;-96
2021/08/21 06:34:49;;;;;;;3.20;1.65;;;16.20;99.90;;;;;;4941001;29;20023;-95
2021/08/21 06:37:15;;;;;;;2.63;1.67;;;16.20;99.90;;;;;;4940104;29;20027;-96
2021/08/21 06:39:41;;;;;;;3.15;1.80;;;16.30;99.90;;;;;;4939621;29;20047;-95
2021/08/21 06:47:03;;;;;;;5.93;1.80;;;16.40;99.90;;;;;;4918016;23;20063;-96
2021/08/21 06:49:29;;;;;;;5.47;1.90;;;16.40;99.90;;;;;;4922223;29;20110;-94
2021/08/21 06:51:55;;;;;;;2.42;1.60;;;16.40;99.90;;;;;;4931447;29;20111;-94
2021/08/21 06:54:23;;;;;;;3.28;1.90;;;16.40;99.90;;;;;;4931542;29;20024;-95
2021/08/21 06:56:51;;;;;;;2.95;2.00;;;16.40;99.90;;;;;;4915852;29;20024;-94
2021/08/21 06:59:17;;;;;;;3.35;2.65;;;16.40;99.90;;;;;;4923046;29;20055;-95
2021/08/21 07:01:43;;;;;;;3.15;2.10;;;16.40;99.90;;;;;;4922315;29;20024;-93
2021/08/21 07:04:14;;;;;;;2.53;1.67;;;16.50;99.90;;;;;;4915789;29;20083;-94
2021/08/21 07:06:43;;;;;;;3.38;2.25;;;16.50;99.90;;;;;;4913042;29;20031;-94
2021/08/21 07:09:08;;;;;;;3.28;2.53;;;16.50;99.90;;;;;;4921740;29;20031;-94
2021/08/21 07:11:35;;;;;;;4.35;2.50;;;16.60;99.90;;;;;;4910572;29;20036;-95
2021/08/21 07:14:01;;;;;;;6.00;3.20;;;16.60;99.90;;;;;;4910503;29;20028;-96
2021/08/21 07:16:27;;;;;;;8.80;3.53;;;16.60;99.90;;;;;;4911536;29;20036;-96
2021/08/21 07:18:53;;;;;;;5.90;3.30;;;16.60;99.90;;;;;;4911286;29;20027;-96
2021/08/21 07:21:21;;;;;;;6.82;4.30;;;16.70;99.90;;;;;;4916688;29;20043;-95
2021/08/21 07:23:47;;;;;;;6.97;4.47;;;16.70;99.90;;;;;;4920929;29;20028;-95
2021/08/21 07:26:13;;;;;;;6.40;4.28;;;16.70;99.90;;;;;;4912622;29;20588;-95
2021/08/21 07:28:39;;;;;;;7.90;4.93;;;16.70;99.90;;;;;;4911365;29;20028;-96
2021/08/21 07:31:04;;;;;;;7.05;5.55;;;16.70;99.90;;;;;;4928387;29;20130;-94
2021/08/21 07:33:32;;;;;;;9.27;6.28;;;16.70;99.90;;;;;;4914608;29;20522;-95
2021/08/21 07:35:58;;;;;;;10.30;7.25;;;16.70;99.90;;;;;;4912808;29;20080;-96
2021/08/21 07:38:24;;;;;;;10.20;6.18;;;16.70;99.90;;;;;;4916082;29;20445;-96
2021/08/21 07:40:51;;;;;;;10.35;6.57;;;16.70;99.90;;;;;;4914271;29;20050;-96
2021/08/21 07:43:16;;;;;;;12.02;6.78;;;16.70;99.90;;;;;;4915390;29;20108;-96
2021/08/21 07:45:45;;;;;;;12.05;7.82;;;16.70;99.90;;;;;;4915774;29;20075;-95
2021/08/21 07:48:12;;;;;;;14.15;8.80;;;16.70;99.90;;;;;;4912382;29;20039;-93
2021/08/21 07:50:38;;;;;;;10.38;6.55;;;16.70;99.90;;;;;;4909715;29;20115;-96
2021/08/21 07:53:03;;;;;;;13.75;7.20;;;16.70;99.90;;;;;;4912091;29;20115;-94
2021/08/21 07:55:29;;;;;;;14.13;9.40;;;16.80;99.90;;;;;;4912178;29;20030;-94
2021/08/21 07:57:55;;;;;;;15.80;9.77;;;16.80;99.90;;;;;;4914714;29;20058;-93
2021/08/21 08:00:23;;;;;;;13.60;9.05;;;16.90;99.90;;;;;;4909666;29;20036;-94
2021/08/21 08:02:49;;;;;;;15.32;10.13;;;16.90;99.90;;;;;;4911206;29;20277;-96
2021/08/21 08:05:15;;;;;;;22.55;11.57;;;16.90;99.90;;;;;;4913844;29;20062;-94
2021/08/21 08:07:41;;;;;;;15.02;9.40;;;16.90;99.90;;;;;;4907757;29;20066;-94
2021/08/21 08:10:10;;;;;;;14.20;9.13;;;16.90;99.90;;;;;;4912949;29;20080;-95
2021/08/21 08:12:36;;;;;;;14.70;9.37;;;16.90;99.90;;;;;;4907064;29;20055;-94
2021/08/21 08:15:03;;;;;;;14.73;9.48;;;16.90;99.90;;;;;;4916999;29;20032;-94
2021/08/21 08:17:29;;;;;;;13.65;8.43;;;16.90;99.90;;;;;;4909401;29;20032;-95
2021/08/21 08:19:55;;;;;;;15.30;9.50;;;17.00;99.90;;;;;;4920568;29;20059;-93
2021/08/21 08:38:15;;;;;;;17.30;11.10;;;17.10;99.90;;;;;;5749457;23;21291;-96
2021/08/21 08:40:41;;;;;;;17.65;10.85;;;17.10;99.90;;;;;;4935906;29;20055;-94
2021/08/21 08:43:06;;;;;;;16.95;10.63;;;17.20;99.90;;;;;;4918433;29;20023;-96
2021/08/21 08:45:32;;;;;;;22.25;11.23;;;17.20;99.90;;;;;;4919762;29;20059;-96
2021/08/21 08:47:59;;;;;;;20.77;11.65;;;17.30;99.90;;;;;;4934910;29;20027;-94
2021/08/21 08:50:25;;;;;;;18.35;12.15;;;17.30;99.90;;;;;;4916255;29;20023;-95
2021/08/21 08:52:52;;;;;;;17.48;10.88;;;17.30;99.90;;;;;;4920024;29;20098;-94
2021/08/21 08:55:18;;;;;;;22.42;11.27;;;17.30;99.90;;;;;;4933701;29;20020;-93
2021/08/21 08:57:46;;;;;;;15.52;10.40;;;17.30;99.90;;;;;;4918970;29;20061;-93
2021/08/21 09:00:22;;;;;;;16.50;10.90;;;17.30;99.90;;;;;;4919407;29;20493;-95
2021/08/21 09:02:50;;;;;;;17.88;10.15;;;17.30;99.90;;;;;;4920480;29;20035;-95
2021/08/21 09:05:18;;;;;;;20.38;11.13;;;17.40;99.90;;;;;;4918421;29;20072;-94
2021/08/21 09:07:52;;;;;;;16.30;10.00;;;17.50;99.90;;;;;;4918365;29;20509;-93
2021/08/21 09:10:30;;;;;;;17.42;10.05;;;17.60;99.90;;;;;;4923351;29;20098;-94
2021/08/21 09:13:13;;;;;;;18.60;11.27;;;17.60;99.90;;;;;;4929641;29;20060;-95
2021/08/21 09:15:41;;;;;;;18.88;10.48;;;17.70;99.90;;;;;;4931440;29;20027;-93
2021/08/21 09:18:13;;;;;;;19.48;12.10;;;17.70;99.90;;;;;;4917305;29;20043;-93
2021/08/21 09:20:47;;;;;;;17.85;11.48;;;17.70;99.90;;;;;;4930048;29;20051;-94
2021/08/21 09:23:28;;;;;;;19.42;11.45;;;17.70;99.90;;;;;;4922877;29;20059;-93
2021/08/21 09:26:09;;;;;;;16.75;11.68;;;17.70;99.90;;;;;;4924097;29;20030;-93
2021/08/21 09:28:36;;;;;;;;;;;17.70;99.90;;;;;;4924801;29;20401;-94
2021/08/21 09:31:36;;;;;;;15.88;10.50;;;17.70;99.90;;;;;;4909550;29;20219;-94
2021/08/21 09:34:06;;;;;;;17.08;10.90;;;17.70;99.90;;;;;;4908621;29;20024;-94
2021/08/21 09:36:36;;;;;;;17.38;10.48;;;17.80;99.90;;;;;;4916673;29;20036;-94
2021/08/21 09:39:14;;;;;;;14.80;9.85;;;17.90;99.90;;;;;;4920209;29;20044;-92
2021/08/21 09:41:59;;;;;;;14.05;10.23;;;17.90;99.90;;;;;;4915441;29;20393;-92
2021/08/21 09:44:26;;;;;;;13.35;9.05;;;18.00;99.90;;;;;;4919469;29;20036;-93
2021/08/21 09:47:38;;;;;;;12.57;9.85;;;18.00;99.90;;;;;;4907870;29;20035;-94
2021/08/21 09:50:20;;;;;;;13.40;8.95;;;18.00;99.90;;;;;;4903521;29;20056;-92
2021/08/21 09:52:48;;;;;;;11.50;8.85;;;18.10;99.90;;;;;;4906400;29;20032;-92
2021/08/21 09:55:19;;;;;;;13.52;8.10;;;18.10;99.90;;;;;;4899020;29;20278;-92
2021/08/21 09:57:59;;;;;;;14.50;7.90;;;18.20;99.90;;;;;;4904101;29;20367;-94
2021/08/21 10:00:26;;;;;;;12.60;7.45;;;18.30;99.90;;;;;;4903294;29;20024;-93
2021/08/21 10:02:56;;;;;;;12.20;8.20;;;18.30;99.90;;;;;;4903891;29;20532;-93
2021/08/21 10:05:23;;;;;;;;;;;18.40;99.90;;;;;;4888717;29;20032;-93
2021/08/21 10:07:54;;;;;;;9.85;7.03;;;18.50;99.90;;;;;;4910272;29;20006;-93
2021/08/21 10:10:23;;;;;;;8.52;6.65;;;18.40;99.90;;;;;;4903790;29;20036;-94
2021/08/21 10:12:54;;;;;;;13.23;5.80;;;18.50;99.90;;;;;;4900830;29;20036;-94
2021/08/21 10:15:21;;;;;;;8.48;5.40;;;18.50;99.90;;;;;;4903722;29;20029;-94
2021/08/21 10:17:50;;;;;;;9.23;5.38;;;18.50;99.90;;;;;;4919210;29;20039;-93
2021/08/21 10:20:16;;;;;;;10.48;5.47;;;18.50;99.90;;;;;;4903408;29;20024;-95
2021/08/21 10:22:42;;;;;;;6.78;4.70;;;18.50;99.90;;;;;;4899736;29;20143;-94
2021/08/21 10:25:11;;;;;;;8.77;4.75;;;18.50;99.90;;;;;;4906693;29;20545;-94
2021/08/21 10:27:52;;;;;;;9.57;5.03;;;18.50;99.90;;;;;;4903609;29;20043;-93
2021/08/21 10:30:20;;;;;;;7.05;4.35;;;18.60;99.90;;;;;;4898881;29;20032;-94
2021/08/21 10:32:59;;;;;;;9.30;5.00;;;18.60;99.90;;;;;;4897334;29;20040;-94
2021/08/21 10:35:55;;;;;;;11.40;4.80;;;18.60;99.90;;;;;;4902211;29;20059;-96
2021/08/21 10:38:31;;;;;;;15.98;7.57;;;18.60;99.90;;;;;;4892501;29;20048;-93
2021/08/21 10:41:26;;;;;;;10.93;6.03;;;18.60;99.90;;;;;;4899284;29;20119;-92
2021/08/21 10:43:55;;;;;;;21.83;10.40;;;18.60;99.90;;;;;;4893671;29;20032;-93
2021/08/21 10:46:29;;;;;;;22.88;9.57;;;18.60;99.90;;;;;;4895298;29;20048;-93
2021/08/21 10:51:30;;;;;;;25.40;10.80;;;18.60;99.90;;;;;;5033298;23;20060;-93
2021/08/21 10:53:56;;;;;;;17.88;8.45;;;18.70;99.90;;;;;;4915507;29;20028;-92
2021/08/21 10:56:36;;;;;;;11.23;6.43;;;18.70;99.90;;;;;;4916094;29;20071;-93
2021/08/21 10:59:02;;;;;;;13.25;6.18;;;18.70;99.90;;;;;;4898038;29;20106;-95
2021/08/21 11:01:30;;;;;;;5.65;3.65;;;18.70;99.90;;;;;;4905587;29;20028;-95
2021/08/21 11:03:56;;;;;;;7.63;3.42;;;18.70;99.90;;;;;;4900925;29;20581;-94
2021/08/21 11:06:41;;;;;;;6.28;3.33;;;18.70;99.90;;;;;;4903054;29;20028;-92
2021/08/21 11:09:10;;;;;;;5.43;3.20;;;18.60;99.90;;;;;;4898796;29;20036;-96
2021/08/21 11:11:44;;;;;;;9.18;4.00;;;18.60;99.90;;;;;;4919789;29;20059;-95
2021/08/21 11:14:23;;;;;;;8.20;3.85;;;18.60;99.90;;;;;;4922622;29;20051;-95
2021/08/21 11:16:59;;;;;;;7.93;4.05;;;18.60;99.90;;;;;;4917810;29;20023;-94
2021/08/21 11:19:27;;;;;;;6.93;3.70;;;18.60;99.90;;;;;;4919365;29;20035;-94
2021/08/21 11:22:08;;;;;;;7.13;3.72;;;18.60;99.90;;;;;;4917620;29;20036;-94
2021/08/21 11:24:33;;;;;;;;;;;18.60;99.90;;;;;;4910531;29;20032;-94
2021/08/21 11:27:24;;;;;;;5.95;3.75;;;18.60;99.90;;;;;;4908045;29;19918;-94
2021/08/21 11:30:10;;;;;;;8.65;4.57;;;18.50;99.90;;;;;;4910808;29;20107;-94
2021/08/21 11:32:54;;;;;;;8.50;5.20;;;18.50;99.90;;;;;;4891818;29;20032;-94
2021/08/21 11:35:45;;;;;;;7.05;3.75;;;18.50;99.90;;;;;;4895153;29;20024;-94
2021/08/21 11:38:12;;;;;;;5.63;3.33;;;18.40;99.90;;;;;;4900113;29;20032;-95
2021/08/21 11:40:50;;;;;;;4.20;3.30;;;18.30;99.90;;;;;;4900919;29;20079;-95
2021/08/21 11:43:25;;;;;;;5.68;3.40;;;18.30;99.90;;;;;;4899856;29;20032;-95
2021/08/21 11:45:51;;;;;;;3.83;2.95;;;18.20;99.90;;;;;;4901967;29;20028;-94
2021/08/21 11:48:17;;;;;;;4.22;2.75;;;18.20;99.90;;;;;;4901105;29;20035;-94
2021/08/21 11:50:44;;;;;;;4.53;2.50;;;18.20;99.90;;;;;;4895870;29;20107;-94
2021/08/21 11:53:13;;;;;;;1.83;0.90;;;18.20;99.90;;;;;;4897678;29;20041;-94
2021/08/21 11:55:39;;;;;;;2.65;1.23;;;18.30;99.90;;;;;;4890956;29;20545;-95
2021/08/21 11:58:06;;;;;;;0.75;0.70;;;18.30;99.90;;;;;;4895007;29;20032;-93
2021/08/21 12:00:35;;;;;;;0.88;0.80;;;18.40;99.90;;;;;;4905670;29;20079;-95
2021/08/21 12:03:05;;;;;;;2.40;0.90;;;18.50;99.90;;;;;;4893909;29;20085;-93
2021/08/21 12:05:45;;;;;;;1.50;0.77;;;18.70;99.90;;;;;;4910842;29;20036;-94
2021/08/21 12:08:24;;;;;;;2.28;0.77;;;18.90;99.90;;;;;;4906795;29;20092;-94
2021/08/21 12:10:49;;;;;;;0.95;0.70;;;19.10;99.90;;;;;;4907214;29;20107;-93
2021/08/21 12:13:19;;;;;;;1.42;0.60;;;19.10;99.90;;;;;;4915909;29;20036;-94
2021/08/21 12:15:46;;;;;;;2.10;0.70;;;19.20;99.90;;;;;;4891818;29;20119;-94
2021/08/21 12:18:13;;;;;;;1.13;0.90;;;19.20;99.90;;;;;;4881754;29;20051;-93
2021/08/21 12:20:39;;;;;;;2.13;0.80;;;19.30;99.90;;;;;;4897706;29;20036;-95
2021/08/21 12:23:07;;;;;;;1.27;0.90;;;19.30;99.90;;;;;;4900777;29;20123;-94
2021/08/21 12:25:47;;;;;;;1.42;1.23;;;19.20;99.90;;;;;;4900184;29;20028;-95
2021/08/21 12:28:14;;;;;;;1.25;1.15;;;19.30;99.90;;;;;;4900027;29;20033;-95
2021/08/21 12:30:51;;;;;;;2.03;1.25;;;19.30;99.90;;;;;;4898809;29;20544;-94
2021/08/21 12:33:17;;;;;;;4.68;1.60;;;19.20;99.90;;;;;;4899177;29;20067;-96
2021/08/21 12:35:43;;;;;;;2.55;1.40;;;19.20;99.90;;;;;;4900136;29;20125;-95
2021/08/21 12:38:08;;;;;;;1.58;1.20;;;19.10;99.90;;;;;;4899843;29;20036;-94
2021/08/21 12:40:35;;;;;;;3.05;1.70;;;19.10;99.90;;;;;;4902068;29;20024;-95
2021/08/21 12:43:07;;;;;;;2.50;1.83;;;19.00;99.90;;;;;;4903617;29;20059;-93
2021/08/21 12:45:43;;;;;;;4.95;2.13;;;19.00;99.90;;;;;;4905446;29;20035;-93
2021/08/21 12:48:09;;;;;;;4.28;1.80;;;18.90;99.90;;;;;;4905539;29;20067;-93
2021/08/21 12:50:42;;;;;;;3.67;2.03;;;18.80;99.90;;;;;;4921443;29;20048;-93
2021/08/21 12:53:08;;;;;;;2.17;1.80;;;18.70;99.90;;;;;;4904258;29;20047;-93
2021/08/21 12:55:34;;;;;;;4.05;2.47;;;18.60;99.90;;;;;;4904726;29;20486;-92
2021/08/21 12:58:10;;;;;;;3.63;2.30;;;18.60;99.90;;;;;;4904671;29;20028;-93
2021/08/21 13:00:39;;;;;;;4.85;1.83;;;18.40;99.90;;;;;;4904272;29;20034;-92
2021/08/21 13:03:21;;;;;;;5.40;1.95;;;18.30;99.90;;;;;;4904726;29;20032;-92
2021/08/21 13:05:57;;;;;;;4.30;1.42;;;18.10;99.90;;;;;;4904184;29;20492;-91
2021/08/21 13:08:37;;;;;;;2.33;1.33;;;18.00;99.90;;;;;;4904182;29;20047;-91
2021/08/21 13:11:04;;;;;;;3.63;1.30;;;18.00;99.90;;;;;;4904505;29;20043;-92
2021/08/21 13:13:30;;;;;;;2.20;1.17;;;18.00;99.90;;;;;;4904342;29;20051;-92
2021/08/21 13:16:04;;;;;;;1.85;1.10;;;17.90;99.90;;;;;;4904218;29;20032;-92
2021/08/21 13:18:30;;;;;;;2.35;1.40;;;17.90;99.90;;;;;;4904196;29;20032;-92
2021/08/21 13:20:56;;;;;;;2.42;1.50;;;17.90;99.90;;;;;;4907103;29;20036;-93
2021/08/21 13:23:22;;;;;;;3.25;1.35;;;17.90;99.90;;;;;;4904498;29;20032;-92
2021/08/21 13:25:47;;;;;;;2.42;1.38;;;18.00;99.90;;;;;;4904576;29;20028;-92
2021/08/21 13:28:13;;;;;;;3.20;1.40;;;18.00;99.90;;;;;;4905204;29;20027;-92
2021/08/21 13:30:38;;;;;;;5.68;1.58;;;18.10;99.90;;;;;;4909182;29;20052;-93
2021/08/21 13:33:04;;;;;;;2.35;1.33;;;18.20;99.90;;;;;;4933100;29;20099;-92
2021/08/21 13:35:30;;;;;;;2.65;1.42;;;18.30;99.90;;;;;;4916402;29;20028;-93
2021/08/21 13:37:55;;;;;;;2.90;2.10;;;18.40;99.90;;;;;;4914938;29;20122;-94
2021/08/21 13:40:21;;;;;;;2.85;1.67;;;18.50;99.90;;;;;;4914805;29;20028;-93
2021/08/21 13:42:51;;;;;;;2.65;1.80;;;18.60;99.90;;;;;;4913998;29;20036;-93
2021/08/21 13:45:17;;;;;;;4.93;1.88;;;18.70;99.90;;;;;;4912543;29;20036;-92
2021/08/21 13:47:43;;;;;;;5.00;1.60;;;18.90;99.90;;;;;;4911470;29;20104;-94
2021/08/21 13:50:09;;;;;;;3.10;2.00;;;19.00;99.90;;;;;;4905540;29;20063;-93
2021/08/21 13:52:35;;;;;;;4.43;2.05;;;19.00;99.90;;;;;;4904395;29;20032;-92
2021/08/21 13:55:01;;;;;;;5.95;1.83;;;19.00;99.90;;;;;;4906352;29;20035;-92
2021/08/21 13:57:26;;;;;;;1.90;1.63;;;19.00;99.90;;;;;;4906803;29;20047;-93
2021/08/21 13:59:53;;;;;;;1.92;1.60;;;19.10;99.90;;;;;;4907451;29;20489;-92
2021/08/21 14:02:21;;;;;;;4.32;1.80;;;19.20;99.90;;;;;;4905053;29;20035;-95
2021/08/21 14:04:47;;;;;;;4.88;1.67;;;19.20;99.90;;;;;;4904449;29;20124;-94
2021/08/21 14:07:13;;;;;;;2.88;1.48;;;19.10;99.90;;;;;;4904881;29;20466;-93
2021/08/21 14:09:40;;;;;;;4.82;2.13;;;19.00;99.90;;;;;;4903692;29;20115;-95
2021/08/21 14:12:06;;;;;;;4.45;1.85;;;19.00;99.90;;;;;;4903015;29;20542;-94
2021/08/21 14:14:32;;;;;;;1.65;1.55;;;18.90;99.90;;;;;;4903078;29;20036;-94
2021/08/21 14:16:58;;;;;;;3.33;1.60;;;18.90;99.90;;;;;;4905128;29;20111;-93
2021/08/21 14:19:24;;;;;;;3.53;1.58;;;18.90;99.90;;;;;;4904249;29;20025;-94
2021/08/21 14:21:52;;;;;;;2.78;1.60;;;18.90;99.90;;;;;;4903180;29;20039;-94
2021/08/21 14:24:18;;;;;;;1.48;1.30;;;18.80;99.90;;;;;;4903206;29;20024;-94
2021/08/21 14:26:43;;;;;;;2.05;1.40;;;18.90;99.90;;;;;;4903254;29;20082;-95
2021/08/21 14:29:09;;;;;;;2.72;1.40;;;18.80;99.90;;;;;;4902798;29;20075;-95
2021/08/21 14:31:35;;;;;;;4.90;1.40;;;18.70;99.90;;;;;;4903116;29;20040;-94
2021/08/21 14:34:01;;;;;;;3.38;1.60;;;18.70;99.90;;;;;;4902800;29;20032;-93
2021/08/21 14:36:27;;;;;;;2.70;1.50;;;18.70;99.90;;;;;;4902966;29;20451;-94
2021/08/21 14:38:54;;;;;;;4.55;2.10;;;18.60;99.90;;;;;;4902775;29;20119;-96
2021/08/21 14:41:19;;;;;;;4.03;1.92;;;18.60;99.90;;;;;;4902849;29;20020;-94
2021/08/21 14:43:45;;;;;;;3.15;1.92;;;18.50;99.90;;;;;;4902509;29;20032;-94
2021/08/21 14:46:14;;;;;;;4.07;1.83;;;18.50;99.90;;;;;;4902802;29;20115;-94
2021/08/21 14:48:40;;;;;;;4.85;2.17;;;18.40;99.90;;;;;;4919677;29;20032;-93
2021/08/21 14:51:07;;;;;;;2.53;1.88;;;18.40;99.90;;;;;;4902594;29;20044;-94
2021/08/21 14:53:33;;;;;;;2.85;2.00;;;18.30;99.90;;;;;;4903046;29;20028;-92
2021/08/21 14:55:59;;;;;;;3.83;2.03;;;18.30;99.90;;;;;;4902621;29;20025;-95
2021/08/21 14:58:25;;;;;;;4.07;2.22;;;18.30;99.90;;;;;;4903315;29;20028;-94
2021/08/21 15:00:54;;;;;;;4.55;2.63;;;18.20;99.90;;;;;;4909998;29;20025;-94
2021/08/21 15:03:19;;;;;;;3.85;2.08;;;18.20;99.90;;;;;;4911098;29;20032;-94
2021/08/21 15:05:45;;;;;;;5.68;3.00;;;18.20;99.90;;;;;;4911806;29;20390;-92
2021/08/21 15:08:11;;;;;;;3.83;2.70;;;18.10;99.90;;;;;;4908611;29;20028;-92
2021/08/21 15:10:38;;;;;;;3.47;2.17;;;18.10;99.90;;;;;;4906479;29;20127;-91
2021/08/21 15:13:04;;;;;;;4.97;2.40;;;18.00;99.90;;;;;;4902963;29;20048;-92
2021/08/21 15:15:31;;;;;;;3.92;2.67;;;18.00;99.90;;;;;;4902543;29;20067;-92
2021/08/21 15:17:56;;;;;;;3.05;2.40;;;18.00;99.90;;;;;;4902456;29;20036;-92
2021/08/21 15:20:23;;;;;;;4.80;2.80;;;18.00;99.90;;;;;;4902038;29;20072;-92
2021/08/21 15:22:49;;;;;;;3.53;2.67;;;18.00;99.90;;;;;;4902233;29;20039;-92
2021/08/21 15:25:15;;;;;;;3.95;2.22;;;18.00;99.90;;;;;;4901832;29;20032;-92
2021/08/21 15:27:41;;;;;;;4.03;2.58;;;18.00;99.90;;;;;;4901962;29;20032;-92
2021/08/21 15:30:07;;;;;;;6.05;2.97;;;18.00;99.90;;;;;;4901705;29;20055;-91
2021/08/21 15:32:34;;;;;;;6.65;3.20;;;18.00;99.90;;;;;;4901485;29;20048;-92
2021/08/21 15:35:00;;;;;;;4.03;2.70;;;18.00;99.90;;;;;;4901994;29;20027;-92
2021/08/21 15:37:26;;;;;;;2.60;1.90;;;18.00;99.90;;;;;;4901526;29;20024;-92
2021/08/21 15:39:52;;;;;;;4.57;2.35;;;18.00;99.90;;;;;;4901512;29;20032;-92
2021/08/21 15:42:18;;;;;;;4.40;2.47;;;18.00;99.90;;;;;;4901481;29;20545;-92
2021/08/21 15:44:44;;;;;;;6.40;2.63;;;17.90;99.90;;;;;;4901853;29;20046;-91
2021/08/21 15:47:11;;;;;;;3.90;1.90;;;17.90;99.90;;;;;;4901898;29;20024;-91
2021/08/21 15:49:41;;;;;;;11.40;2.28;;;17.90;99.90;;;;;;4902810;29;20032;-92
2021/08/21 15:52:08;;;;;;;3.63;2.15;;;17.80;99.90;;;;;;4901396;29;20064;-93
2021/08/21 15:54:34;;;;;;;2.58;2.00;;;17.70;99.90;;;;;;4901380;29;20029;-93
2021/08/21 15:57:00;;;;;;;2.67;1.95;;;17.70;99.90;;;;;;4901383;29;20341;-93
2021/08/21 15:59:25;;;;;;;2.42;2.20;;;17.60;99.90;;;;;;4901261;29;20287;-94
2021/08/21 16:01:51;;;;;;;3.25;2.10;;;17.60;99.90;;;;;;4901431;29;20066;-93
2021/08/21 16:04:17;;;;;;;2.20;1.70;;;17.60;99.90;;;;;;4901174;29;20482;-92
2021/08/21 16:06:44;;;;;;;5.53;2.85;;;17.60;99.90;;;;;;4901292;29;20063;-92
2021/08/21 16:09:10;;;;;;;6.13;2.25;;;17.50;99.90;;;;;;4901074;29;20028;-93
2021/08/21 16:11:36;;;;;;;2.85;1.90;;;17.40;99.90;;;;;;4901065;29;20063;-91
2021/08/21 16:14:01;;;;;;;3.65;2.03;;;17.40;99.90;;;;;;4900830;29;20394;-93
2021/08/21 16:16:28;;;;;;;3.65;2.13;;;17.40;99.90;;;;;;4900992;29;20036;-91
2021/08/21 16:18:54;;;;;;;5.35;2.10;;;17.30;99.90;;;;;;4900971;29;20027;-92
2021/08/21 16:21:20;;;;;;;3.03;2.13;;;17.40;99.90;;;;;;4901444;29;20025;-90
2021/08/21 16:23:46;;;;;;;4.75;2.53;;;17.40;99.90;;;;;;4900880;29;20032;-91
2021/08/21 16:26:12;;;;;;;4.85;2.53;;;17.40;99.90;;;;;;4900561;29;20024;-93
2021/08/21 16:28:39;;;;;;;5.43;2.53;;;17.40;99.90;;;;;;4900964;29;20039;-91
2021/08/21 16:31:07;;;;;;;3.72;2.42;;;17.40;99.90;;;;;;4901137;29;20039;-93
2021/08/21 16:33:33;;;;;;;4.38;2.75;;;17.30;99.90;;;;;;4901554;29;20032;-92
2021/08/21 16:35:59;;;;;;;5.07;2.58;;;17.30;99.90;;;;;;4901652;29;20039;-92
2021/08/21 16:38:25;;;;;;;3.65;2.63;;;17.30;99.90;;;;;;4901359;29;20087;-91
2021/08/21 16:40:50;;;;;;;5.22;2.70;;;17.20;99.90;;;;;;4901835;29;20032;-92
2021/08/21 16:43:16;;;;;;;3.78;2.28;;;17.20;99.90;;;;;;4901499;29;20035;-91
2021/08/21 16:45:46;;;;;;;3.67;2.80;;;17.20;99.90;;;;;;4901301;29;20157;-92
2021/08/21 16:48:12;;;;;;;3.60;2.40;;;17.20;99.90;;;;;;4901468;29;20064;-92
2021/08/21 16:50:39;;;;;;;8.05;3.33;;;17.20;99.90;;;;;;4901074;29;20135;-92
2021/08/21 16:53:05;;;;;;;6.35;3.20;;;17.30;99.90;;;;;;4901581;29;20104;-91
2021/08/21 16:55:31;;;;;;;7.35;2.97;;;17.30;99.90;;;;;;4901268;29;20068;-92
2021/08/21 16:57:58;;;;;;;6.43;3.08;;;17.30;99.90;;;;;;4901127;29;20516;-92
2021/08/21 17:00:24;;;;;;;5.05;3.00;;;17.30;99.90;;;;;;4901470;29;20035;-92
2021/08/21 17:02:51;;;;;;;5.65;2.72;;;17.30;99.90;;;;;;4901375;29;20039;-91
2021/08/21 17:05:18;;;;;;;6.07;3.25;;;17.30;99.90;;;;;;4901335;29;20072;-91
2021/08/21 17:07:44;;;;;;;8.20;2.80;;;17.30;99.90;;;;;;4901003;29;20477;-92
2021/08/21 17:10:10;;;;;;;7.18;3.00;;;17.30;99.90;;;;;;4900669;29;20089;-92
2021/08/21 17:12:36;;;;;;;4.80;2.88;;;17.30;99.90;;;;;;4901105;29;20040;-92
2021/08/21 17:15:02;;;;;;;4.78;2.95;;;17.40;99.90;;;;;;4918444;29;20028;-92
2021/08/21 17:17:30;;;;;;;6.75;2.75;;;17.40;99.90;;;;;;4903216;29;20044;-92
2021/08/21 17:19:56;;;;;;;6.82;3.10;;;17.40;99.90;;;;;;4904170;29;20526;-92
2021/08/21 17:22:22;;;;;;;5.90;3.28;;;17.40;99.90;;;;;;4901021;29;20036;-92
2021/08/21 17:24:51;;;;;;;5.15;3.38;;;17.40;99.90;;;;;;4900846;29;20390;-91
2021/08/21 17:27:17;;;;;;;5.72;3.17;;;17.30;99.90;;;;;;4902530;29;20422;-92
2021/08/21 17:29:43;;;;;;;7.50;3.20;;;17.30;99.90;;;;;;4905419;29;20027;-92
2021/08/21 17:32:08;;;;;;;3.72;3.15;;;17.30;99.90;;;;;;4904856;29;20068;-91
2021/08/21 17:34:34;;;;;;;6.47;3.30;;;17.30;99.90;;;;;;4907844;29;20032;-91
2021/08/21 17:37:01;;;;;;;7.00;3.35;;;17.30;99.90;;;;;;4918374;29;20040;-92
2021/08/21 17:39:27;;;;;;;7.38;3.53;;;17.30;99.90;;;;;;4920511;29;20028;-91
2021/08/21 17:41:52;;;;;;;5.00;2.83;;;17.20;99.90;;;;;;4916655;29;20031;-90
2021/08/21 17:44:18;;;;;;;4.40;2.97;;;17.20;99.90;;;;;;4914938;29;20024;-93
2021/08/21 17:46:44;;;;;;;5.70;3.03;;;17.10;99.90;;;;;;4914465;29;20490;-92
2021/08/21 17:49:11;;;;;;;6.35;3.70;;;17.10;99.90;;;;;;4912034;29;20028;-91
2021/08/21 17:51:38;;;;;;;5.88;3.25;;;17.10;99.90;;;;;;4911104;29;20052;-91
2021/08/21 17:54:04;;;;;;;6.53;3.47;;;17.00;99.90;;;;;;4909521;29;20039;-91
2021/08/21 17:56:33;;;;;;;4.57;3.35;;;16.90;99.90;;;;;;4906958;29;20036;-91
2021/08/21 17:58:59;;;;;;;7.13;3.53;;;17.00;99.90;;;;;;4908253;29;20052;-91
2021/08/21 18:01:25;;;;;;;5.72;3.55;;;16.90;99.90;;;;;;4913939;29;20032;-90
2021/08/21 18:03:51;;;;;;;7.35;3.63;;;16.90;99.90;;;;;;4913877;29;20079;-91
2021/08/21 18:06:17;;;;;;;11.02;4.22;;;16.90;99.90;;;;;;4912828;29;20095;-92
2021/08/21 18:08:43;;;;;;;8.45;4.43;;;16.90;99.90;;;;;;4911736;29;20062;-91